sensor_id;sensor_type;location;lat;lon;timestamp;P1;durP1;ratioP1;P2;durP2;ratioP2
80348;SDS011;69662;52.676;13.612;2023-04-25T00:00:33;2.60;;;1.90;;
80348;SDS011;69662;52.676;13.612;2023-04-25T00:02:58;2.47;;;2.00;;
80348;SDS011;69662;52.676;13.612;2023-04-25T00:05:25;2.75;;;1.70;;
80348;SDS011;69662;52.676;13.612;2023-04-25T00:07:51;2.00;;;1.80;;
80348;SDS011;69662;52.676;13.612;2023-04-25T00:10:16;2.20;;;1.75;;
80348;SDS011;69662;52.676;13.612;2023-04-25T00:12:41;2.47;;;1.90;;
80348;SDS011;69662;52.676;13.612;2023-04-25T00:15:07;2.77;;;1.90;;
80348;SDS011;69662;52.676;13.612;2023-04-25T00:17:32;2.75;;;1.98;;
80348;SDS011;69662;52.676;13.612;2023-04-25T00:19:59;2.33;;;1.80;;
80348;SDS011;69662;52.676;13.612;2023-04-25T00:22:25;2.33;;;1.80;;
80348;SDS011;69662;52.676;13.612;2023-04-25T00:24:50;2.23;;;1.60;;
80348;SDS011;69662;52.676;13.612;2023-04-25T00:27:18;2.83;;;2.22;;
80348;SDS011;69662;52.676;13.612;2023-04-25T00:29:43;3.03;;;2.10;;
80348;SDS011;69662;52.676;13.612;2023-04-25T00:32:08;2.30;;;1.73;;
80348;SDS011;69662;52.676;13.612;2023-04-25T00:34:34;2.23;;;1.67;;
80348;SDS011;69662;52.676;13.612;2023-04-25T00:36:59;2.97;;;1.90;;
80348;SDS011;69662;52.676;13.612;2023-04-25T00:39:26;3.65;;;2.22;;
80348;SDS011;69662;52.676;13.612;2023-04-25T00:41:52;2.30;;;1.80;;
80348;SDS011;69662;52.676;13.612;2023-04-25T00:44:19;2.42;;;2.22;;
80348;SDS011;69662;52.676;13.612;2023-04-25T00:46:45;2.92;;;2.00;;
80348;SDS011;69662;52.676;13.612;2023-04-25T00:49:15;1.75;;;1.58;;
80348;SDS011;69662;52.676;13.612;2023-04-25T00:51:41;2.75;;;1.95;;
80348;SDS011;69662;52.676;13.612;2023-04-25T00:54:09;2.67;;;1.80;;
80348;SDS011;69662;52.676;13.612;2023-04-25T00:56:35;2.55;;;2.20;;
80348;SDS011;69662;52.676;13.612;2023-04-25T00:59:00;2.00;;;1.80;;
80348;SDS011;69662;52.676;13.612;2023-04-25T01:01:26;3.28;;;2.10;;
80348;SDS011;69662;52.676;13.612;2023-04-25T01:03:51;2.50;;;2.03;;
80348;SDS011;69662;52.676;13.612;2023-04-25T01:06:19;2.92;;;1.98;;
80348;SDS011;69662;52.676;13.612;2023-04-25T01:08:44;2.22;;;1.83;;
80348;SDS011;69662;52.676;13.612;2023-04-25T01:11:10;2.35;;;1.83;;
80348;SDS011;69662;52.676;13.612;2023-04-25T01:13:35;1.93;;;1.73;;
80348;SDS011;69662;52.676;13.612;2023-04-25T01:16:01;2.67;;;1.85;;
80348;SDS011;69662;52.676;13.612;2023-04-25T01:18:27;2.45;;;1.83;;
80348;SDS011;69662;52.676;13.612;2023-04-25T01:20:53;2.77;;;2.03;;
80348;SDS011;69662;52.676;13.612;2023-04-25T01:23:20;2.47;;;2.00;;
80348;SDS011;69662;52.676;13.612;2023-04-25T01:25:45;2.72;;;1.80;;
80348;SDS011;69662;52.676;13.612;2023-04-25T01:28:11;2.03;;;1.58;;
80348;SDS011;69662;52.676;13.612;2023-04-25T01:30:37;2.85;;;1.90;;
80348;SDS011;69662;52.676;13.612;2023-04-25T01:33:04;2.72;;;1.50;;
80348;SDS011;69662;52.676;13.612;2023-04-25T01:35:30;3.25;;;2.08;;
80348;SDS011;69662;52.676;13.612;2023-04-25T01:37:57;2.83;;;1.85;;
80348;SDS011;69662;52.676;13.612;2023-04-25T01:40:22;2.45;;;1.70;;
80348;SDS011;69662;52.676;13.612;2023-04-25T01:42:49;3.00;;;1.88;;
80348;SDS011;69662;52.676;13.612;2023-04-25T01:45:15;2.80;;;1.90;;
80348;SDS011;69662;52.676;13.612;2023-04-25T01:47:40;2.85;;;1.90;;
80348;SDS011;69662;52.676;13.612;2023-04-25T01:50:07;2.25;;;1.77;;
80348;SDS011;69662;52.676;13.612;2023-04-25T01:52:33;2.28;;;1.70;;
80348;SDS011;69662;52.676;13.612;2023-04-25T01:55:00;2.63;;;2.00;;
80348;SDS011;69662;52.676;13.612;2023-04-25T01:57:26;2.05;;;1.70;;
80348;SDS011;69662;52.676;13.612;2023-04-25T01:59:53;2.07;;;1.87;;
80348;SDS011;69662;52.676;13.612;2023-04-25T02:02:28;1.65;;;1.40;;
80348;SDS011;69662;52.676;13.612;2023-04-25T02:04:53;2.15;;;1.60;;
80348;SDS011;69662;52.676;13.612;2023-04-25T02:07:19;1.63;;;1.45;;
80348;SDS011;69662;52.676;13.612;2023-04-25T02:09:45;1.63;;;1.50;;
80348;SDS011;69662;52.676;13.612;2023-04-25T02:12:10;1.83;;;1.60;;
80348;SDS011;69662;52.676;13.612;2023-04-25T02:14:36;2.88;;;2.22;;
80348;SDS011;69662;52.676;13.612;2023-04-25T02:17:01;2.15;;;1.83;;
80348;SDS011;69662;52.676;13.612;2023-04-25T02:19:27;2.45;;;1.80;;
80348;SDS011;69662;52.676;13.612;2023-04-25T02:21:52;1.97;;;1.77;;
80348;SDS011;69662;52.676;13.612;2023-04-25T02:24:17;1.77;;;1.60;;
80348;SDS011;69662;52.676;13.612;2023-04-25T02:26:43;1.60;;;1.50;;
80348;SDS011;69662;52.676;13.612;2023-04-25T02:29:09;2.05;;;1.85;;
80348;SDS011;69662;52.676;13.612;2023-04-25T02:31:34;1.88;;;1.42;;
80348;SDS011;69662;52.676;13.612;2023-04-25T02:34:00;1.98;;;1.58;;
80348;SDS011;69662;52.676;13.612;2023-04-25T02:36:25;1.70;;;1.60;;
80348;SDS011;69662;52.676;13.612;2023-04-25T02:38:51;2.88;;;1.50;;
80348;SDS011;69662;52.676;13.612;2023-04-25T02:41:17;1.80;;;1.60;;
80348;SDS011;69662;52.676;13.612;2023-04-25T02:43:42;2.85;;;1.77;;
80348;SDS011;69662;52.676;13.612;2023-04-25T02:46:08;2.37;;;1.57;;
80348;SDS011;69662;52.676;13.612;2023-04-25T02:48:33;1.70;;;1.57;;
80348;SDS011;69662;52.676;13.612;2023-04-25T02:50:58;3.57;;;1.57;;
80348;SDS011;69662;52.676;13.612;2023-04-25T02:53:23;2.40;;;1.70;;
80348;SDS011;69662;52.676;13.612;2023-04-25T02:55:49;2.33;;;1.80;;
80348;SDS011;69662;52.676;13.612;2023-04-25T02:58:14;2.53;;;1.67;;
80348;SDS011;69662;52.676;13.612;2023-04-25T03:00:40;2.17;;;1.77;;
80348;SDS011;69662;52.676;13.612;2023-04-25T03:03:05;2.25;;;1.60;;
80348;SDS011;69662;52.676;13.612;2023-04-25T03:05:31;2.37;;;1.67;;
80348;SDS011;69662;52.676;13.612;2023-04-25T03:07:56;2.13;;;1.40;;
80348;SDS011;69662;52.676;13.612;2023-04-25T03:10:21;2.33;;;1.60;;
80348;SDS011;69662;52.676;13.612;2023-04-25T03:12:47;1.73;;;1.63;;
80348;SDS011;69662;52.676;13.612;2023-04-25T03:15:12;2.90;;;1.70;;
80348;SDS011;69662;52.676;13.612;2023-04-25T03:17:37;2.30;;;1.40;;
80348;SDS011;69662;52.676;13.612;2023-04-25T03:20:03;2.50;;;1.60;;
80348;SDS011;69662;52.676;13.612;2023-04-25T03:22:29;2.83;;;1.80;;
80348;SDS011;69662;52.676;13.612;2023-04-25T03:24:54;2.05;;;1.42;;
80348;SDS011;69662;52.676;13.612;2023-04-25T03:27:19;1.57;;;1.40;;
80348;SDS011;69662;52.676;13.612;2023-04-25T03:29:45;1.98;;;1.83;;
80348;SDS011;69662;52.676;13.612;2023-04-25T03:32:10;1.80;;;1.50;;
80348;SDS011;69662;52.676;13.612;2023-04-25T03:34:35;2.20;;;1.55;;
80348;SDS011;69662;52.676;13.612;2023-04-25T03:37:01;2.50;;;1.70;;
80348;SDS011;69662;52.676;13.612;2023-04-25T03:39:26;2.27;;;1.63;;
80348;SDS011;69662;52.676;13.612;2023-04-25T03:41:51;1.60;;;1.50;;
80348;SDS011;69662;52.676;13.612;2023-04-25T03:44:17;2.20;;;1.67;;
80348;SDS011;69662;52.676;13.612;2023-04-25T03:46:42;3.20;;;1.85;;
80348;SDS011;69662;52.676;13.612;2023-04-25T03:49:07;3.00;;;1.87;;
80348;SDS011;69662;52.676;13.612;2023-04-25T03:51:32;1.85;;;1.60;;
80348;SDS011;69662;52.676;13.612;2023-04-25T03:53:58;1.80;;;1.50;;
80348;SDS011;69662;52.676;13.612;2023-04-25T03:56:23;2.00;;;1.60;;
80348;SDS011;69662;52.676;13.612;2023-04-25T03:58:48;2.93;;;1.70;;
80348;SDS011;69662;52.676;13.612;2023-04-25T04:01:14;2.30;;;2.00;;
80348;SDS011;69662;52.676;13.612;2023-04-25T04:03:39;1.87;;;1.67;;
80348;SDS011;69662;52.676;13.612;2023-04-25T04:06:04;2.50;;;1.70;;
80348;SDS011;69662;52.676;13.612;2023-04-25T04:08:30;2.88;;;1.75;;
80348;SDS011;69662;52.676;13.612;2023-04-25T04:10:59;2.20;;;1.90;;
80348;SDS011;69662;52.676;13.612;2023-04-25T04:13:25;2.00;;;1.80;;
80348;SDS011;69662;52.676;13.612;2023-04-25T04:15:51;2.80;;;2.10;;
80348;SDS011;69662;52.676;13.612;2023-04-25T04:18:17;1.70;;;1.52;;
80348;SDS011;69662;52.676;13.612;2023-04-25T04:20:42;2.03;;;1.70;;
80348;SDS011;69662;52.676;13.612;2023-04-25T04:23:07;1.87;;;1.47;;
80348;SDS011;69662;52.676;13.612;2023-04-25T04:25:33;2.67;;;1.60;;
80348;SDS011;69662;52.676;13.612;2023-04-25T04:27:59;1.95;;;1.60;;
80348;SDS011;69662;52.676;13.612;2023-04-25T04:30:25;2.00;;;1.80;;
80348;SDS011;69662;52.676;13.612;2023-04-25T04:32:54;2.15;;;1.80;;
80348;SDS011;69662;52.676;13.612;2023-04-25T04:35:20;1.70;;;1.60;;
80348;SDS011;69662;52.676;13.612;2023-04-25T04:37:45;2.73;;;1.73;;
80348;SDS011;69662;52.676;13.612;2023-04-25T04:40:10;3.00;;;2.03;;
80348;SDS011;69662;52.676;13.612;2023-04-25T04:42:36;2.05;;;1.65;;
80348;SDS011;69662;52.676;13.612;2023-04-25T04:45:02;3.63;;;1.77;;
80348;SDS011;69662;52.676;13.612;2023-04-25T04:47:28;3.70;;;1.70;;
80348;SDS011;69662;52.676;13.612;2023-04-25T04:49:56;3.33;;;1.48;;
80348;SDS011;69662;52.676;13.612;2023-04-25T04:52:21;2.92;;;1.83;;
80348;SDS011;69662;52.676;13.612;2023-04-25T04:54:47;2.50;;;1.50;;
80348;SDS011;69662;52.676;13.612;2023-04-25T04:57:12;2.53;;;1.80;;
80348;SDS011;69662;52.676;13.612;2023-04-25T04:59:37;2.83;;;1.77;;
80348;SDS011;69662;52.676;13.612;2023-04-25T05:02:03;2.85;;;1.70;;
80348;SDS011;69662;52.676;13.612;2023-04-25T05:04:28;2.33;;;1.77;;
80348;SDS011;69662;52.676;13.612;2023-04-25T05:06:53;3.50;;;1.87;;
80348;SDS011;69662;52.676;13.612;2023-04-25T05:09:19;6.00;;;2.83;;
80348;SDS011;69662;52.676;13.612;2023-04-25T05:11:44;8.40;;;2.97;;
80348;SDS011;69662;52.676;13.612;2023-04-25T05:14:09;7.07;;;2.80;;
80348;SDS011;69662;52.676;13.612;2023-04-25T05:16:34;7.53;;;3.05;;
80348;SDS011;69662;52.676;13.612;2023-04-25T05:19:00;10.27;;;3.90;;
80348;SDS011;69662;52.676;13.612;2023-04-25T05:21:25;15.73;;;4.03;;
80348;SDS011;69662;52.676;13.612;2023-04-25T05:23:52;12.65;;;4.00;;
80348;SDS011;69662;52.676;13.612;2023-04-25T05:26:18;15.02;;;4.32;;
80348;SDS011;69662;52.676;13.612;2023-04-25T05:28:43;9.43;;;4.57;;
80348;SDS011;69662;52.676;13.612;2023-04-25T05:31:09;14.70;;;4.00;;
80348;SDS011;69662;52.676;13.612;2023-04-25T05:33:35;15.75;;;4.53;;
80348;SDS011;69662;52.676;13.612;2023-04-25T05:36:00;16.85;;;4.78;;
80348;SDS011;69662;52.676;13.612;2023-04-25T05:38:26;16.17;;;4.00;;
80348;SDS011;69662;52.676;13.612;2023-04-25T05:40:51;11.18;;;4.35;;
80348;SDS011;69662;52.676;13.612;2023-04-25T05:43:16;15.40;;;4.77;;
80348;SDS011;69662;52.676;13.612;2023-04-25T05:45:42;14.30;;;4.43;;
80348;SDS011;69662;52.676;13.612;2023-04-25T05:48:07;11.97;;;4.50;;
80348;SDS011;69662;52.676;13.612;2023-04-25T05:50:32;16.73;;;4.90;;
80348;SDS011;69662;52.676;13.612;2023-04-25T05:52:57;11.00;;;4.57;;
80348;SDS011;69662;52.676;13.612;2023-04-25T05:55:23;11.80;;;4.43;;
80348;SDS011;69662;52.676;13.612;2023-04-25T05:57:48;12.10;;;3.97;;
80348;SDS011;69662;52.676;13.612;2023-04-25T06:00:13;11.90;;;4.37;;
80348;SDS011;69662;52.676;13.612;2023-04-25T06:02:40;11.23;;;4.45;;
80348;SDS011;69662;52.676;13.612;2023-04-25T06:05:06;12.13;;;4.00;;
80348;SDS011;69662;52.676;13.612;2023-04-25T06:07:31;13.70;;;4.53;;
80348;SDS011;69662;52.676;13.612;2023-04-25T06:09:56;9.97;;;4.10;;
80348;SDS011;69662;52.676;13.612;2023-04-25T06:12:22;9.73;;;4.00;;
80348;SDS011;69662;52.676;13.612;2023-04-25T06:14:47;12.13;;;4.93;;
80348;SDS011;69662;52.676;13.612;2023-04-25T06:17:13;12.83;;;4.93;;
80348;SDS011;69662;52.676;13.612;2023-04-25T06:19:38;10.25;;;4.15;;
80348;SDS011;69662;52.676;13.612;2023-04-25T06:22:04;12.98;;;3.80;;
80348;SDS011;69662;52.676;13.612;2023-04-25T06:24:29;14.13;;;5.10;;
80348;SDS011;69662;52.676;13.612;2023-04-25T06:26:54;12.50;;;4.28;;
80348;SDS011;69662;52.676;13.612;2023-04-25T06:29:20;11.63;;;4.37;;
80348;SDS011;69662;52.676;13.612;2023-04-25T06:31:45;10.93;;;4.75;;
80348;SDS011;69662;52.676;13.612;2023-04-25T06:34:10;10.90;;;3.95;;
80348;SDS011;69662;52.676;13.612;2023-04-25T06:36:36;9.77;;;4.13;;
80348;SDS011;69662;52.676;13.612;2023-04-25T06:39:01;9.85;;;3.75;;
80348;SDS011;69662;52.676;13.612;2023-04-25T06:41:27;11.15;;;4.10;;
80348;SDS011;69662;52.676;13.612;2023-04-25T06:43:52;8.40;;;4.10;;
80348;SDS011;69662;52.676;13.612;2023-04-25T06:46:18;9.63;;;4.23;;
80348;SDS011;69662;52.676;13.612;2023-04-25T06:48:43;12.77;;;3.78;;
80348;SDS011;69662;52.676;13.612;2023-04-25T06:51:08;9.77;;;3.80;;
80348;SDS011;69662;52.676;13.612;2023-04-25T06:53:34;9.33;;;3.50;;
80348;SDS011;69662;52.676;13.612;2023-04-25T06:55:59;12.60;;;3.90;;
80348;SDS011;69662;52.676;13.612;2023-04-25T06:58:24;9.73;;;3.42;;
80348;SDS011;69662;52.676;13.612;2023-04-25T07:00:51;11.20;;;4.47;;
80348;SDS011;69662;52.676;13.612;2023-04-25T07:03:16;11.68;;;3.63;;
80348;SDS011;69662;52.676;13.612;2023-04-25T07:05:41;9.33;;;3.47;;
80348;SDS011;69662;52.676;13.612;2023-04-25T07:08:06;8.17;;;3.63;;
80348;SDS011;69662;52.676;13.612;2023-04-25T07:10:32;8.88;;;3.28;;
80348;SDS011;69662;52.676;13.612;2023-04-25T07:12:57;9.43;;;2.83;;
80348;SDS011;69662;52.676;13.612;2023-04-25T07:15:22;7.20;;;3.10;;
80348;SDS011;69662;52.676;13.612;2023-04-25T07:17:48;9.53;;;3.00;;
80348;SDS011;69662;52.676;13.612;2023-04-25T07:20:13;11.17;;;3.73;;
80348;SDS011;69662;52.676;13.612;2023-04-25T07:22:38;8.60;;;3.45;;
80348;SDS011;69662;52.676;13.612;2023-04-25T07:25:04;7.43;;;3.10;;
80348;SDS011;69662;52.676;13.612;2023-04-25T07:27:30;6.85;;;3.50;;
80348;SDS011;69662;52.676;13.612;2023-04-25T07:29:56;11.48;;;3.67;;
80348;SDS011;69662;52.676;13.612;2023-04-25T07:32:21;12.65;;;2.88;;
80348;SDS011;69662;52.676;13.612;2023-04-25T07:34:46;6.93;;;3.30;;
80348;SDS011;69662;52.676;13.612;2023-04-25T07:37:12;12.15;;;3.00;;
80348;SDS011;69662;52.676;13.612;2023-04-25T07:39:39;10.02;;;2.67;;
80348;SDS011;69662;52.676;13.612;2023-04-25T07:42:04;12.05;;;3.17;;
80348;SDS011;69662;52.676;13.612;2023-04-25T07:44:32;11.38;;;2.80;;
80348;SDS011;69662;52.676;13.612;2023-04-25T07:47:03;7.88;;;2.75;;
80348;SDS011;69662;52.676;13.612;2023-04-25T07:49:29;7.93;;;2.75;;
80348;SDS011;69662;52.676;13.612;2023-04-25T07:51:54;13.80;;;2.92;;
80348;SDS011;69662;52.676;13.612;2023-04-25T07:54:20;9.97;;;3.07;;
80348;SDS011;69662;52.676;13.612;2023-04-25T07:56:45;5.93;;;2.97;;
80348;SDS011;69662;52.676;13.612;2023-04-25T07:59:10;9.93;;;3.17;;
80348;SDS011;69662;52.676;13.612;2023-04-25T08:01:36;9.10;;;2.73;;
80348;SDS011;69662;52.676;13.612;2023-04-25T08:04:01;9.43;;;2.77;;
80348;SDS011;69662;52.676;13.612;2023-04-25T08:06:26;14.13;;;2.77;;
80348;SDS011;69662;52.676;13.612;2023-04-25T08:08:52;7.40;;;3.13;;
80348;SDS011;69662;52.676;13.612;2023-04-25T08:11:17;10.10;;;3.10;;
80348;SDS011;69662;52.676;13.612;2023-04-25T08:13:42;7.80;;;2.70;;
80348;SDS011;69662;52.676;13.612;2023-04-25T08:16:08;10.97;;;2.70;;
80348;SDS011;69662;52.676;13.612;2023-04-25T08:18:33;10.50;;;2.80;;
80348;SDS011;69662;52.676;13.612;2023-04-25T08:20:58;6.70;;;3.00;;
80348;SDS011;69662;52.676;13.612;2023-04-25T08:23:23;10.20;;;3.20;;
80348;SDS011;69662;52.676;13.612;2023-04-25T08:25:49;12.43;;;3.17;;
80348;SDS011;69662;52.676;13.612;2023-04-25T08:28:14;7.30;;;2.55;;
80348;SDS011;69662;52.676;13.612;2023-04-25T08:30:40;7.75;;;2.58;;
80348;SDS011;69662;52.676;13.612;2023-04-25T08:33:05;6.70;;;3.13;;
80348;SDS011;69662;52.676;13.612;2023-04-25T08:35:30;7.68;;;3.33;;
80348;SDS011;69662;52.676;13.612;2023-04-25T08:37:57;3.65;;;2.55;;
80348;SDS011;69662;52.676;13.612;2023-04-25T08:40:23;5.27;;;2.80;;
80348;SDS011;69662;52.676;13.612;2023-04-25T08:42:53;10.20;;;3.45;;
80348;SDS011;69662;52.676;13.612;2023-04-25T08:45:20;8.80;;;3.13;;
80348;SDS011;69662;52.676;13.612;2023-04-25T08:47:45;7.00;;;2.55;;
80348;SDS011;69662;52.676;13.612;2023-04-25T08:50:13;8.75;;;3.45;;
80348;SDS011;69662;52.676;13.612;2023-04-25T08:52:45;7.93;;;2.85;;
80348;SDS011;69662;52.676;13.612;2023-04-25T08:55:12;6.45;;;2.78;;
80348;SDS011;69662;52.676;13.612;2023-04-25T08:57:39;6.10;;;3.00;;
80348;SDS011;69662;52.676;13.612;2023-04-25T09:00:07;9.82;;;3.22;;
80348;SDS011;69662;52.676;13.612;2023-04-25T09:02:34;9.13;;;3.15;;
80348;SDS011;69662;52.676;13.612;2023-04-25T09:05:00;10.73;;;3.13;;
80348;SDS011;69662;52.676;13.612;2023-04-25T09:07:27;8.20;;;3.03;;
80348;SDS011;69662;52.676;13.612;2023-04-25T09:09:53;8.73;;;2.97;;
80348;SDS011;69662;52.676;13.612;2023-04-25T09:12:19;4.95;;;2.80;;
80348;SDS011;69662;52.676;13.612;2023-04-25T09:14:53;11.52;;;3.70;;
80348;SDS011;69662;52.676;13.612;2023-04-25T09:17:27;6.82;;;3.20;;
80348;SDS011;69662;52.676;13.612;2023-04-25T09:19:53;7.60;;;3.20;;
80348;SDS011;69662;52.676;13.612;2023-04-25T09:22:19;7.30;;;3.00;;
80348;SDS011;69662;52.676;13.612;2023-04-25T09:24:47;8.40;;;3.00;;
80348;SDS011;69662;52.676;13.612;2023-04-25T09:27:18;4.13;;;2.33;;
80348;SDS011;69662;52.676;13.612;2023-04-25T09:29:44;8.73;;;2.83;;
80348;SDS011;69662;52.676;13.612;2023-04-25T09:32:10;6.03;;;2.90;;
80348;SDS011;69662;52.676;13.612;2023-04-25T09:34:44;5.63;;;2.90;;
80348;SDS011;69662;52.676;13.612;2023-04-25T09:37:16;6.13;;;3.40;;
80348;SDS011;69662;52.676;13.612;2023-04-25T09:39:44;8.90;;;3.05;;
80348;SDS011;69662;52.676;13.612;2023-04-25T09:42:11;9.35;;;3.25;;
80348;SDS011;69662;52.676;13.612;2023-04-25T09:44:37;4.65;;;2.85;;
80348;SDS011;69662;52.676;13.612;2023-04-25T09:47:09;6.95;;;3.55;;
80348;SDS011;69662;52.676;13.612;2023-04-25T09:49:38;7.13;;;3.08;;
80348;SDS011;69662;52.676;13.612;2023-04-25T09:52:05;7.85;;;3.08;;
80348;SDS011;69662;52.676;13.612;2023-04-25T09:54:31;5.50;;;3.17;;
80348;SDS011;69662;52.676;13.612;2023-04-25T09:56:56;7.03;;;2.47;;
80348;SDS011;69662;52.676;13.612;2023-04-25T09:59:28;7.25;;;2.97;;
80348;SDS011;69662;52.676;13.612;2023-04-25T10:01:56;5.03;;;2.80;;
80348;SDS011;69662;52.676;13.612;2023-04-25T10:04:23;7.95;;;2.78;;
80348;SDS011;69662;52.676;13.612;2023-04-25T10:06:51;6.18;;;2.70;;
80348;SDS011;69662;52.676;13.612;2023-04-25T10:09:19;7.63;;;3.58;;
80348;SDS011;69662;52.676;13.612;2023-04-25T10:11:45;5.60;;;2.92;;
80348;SDS011;69662;52.676;13.612;2023-04-25T10:14:15;7.70;;;3.10;;
80348;SDS011;69662;52.676;13.612;2023-04-25T10:16:41;7.70;;;3.53;;
80348;SDS011;69662;52.676;13.612;2023-04-25T10:19:07;5.97;;;2.65;;
80348;SDS011;69662;52.676;13.612;2023-04-25T10:21:32;4.80;;;2.50;;
80348;SDS011;69662;52.676;13.612;2023-04-25T10:23:59;3.22;;;2.13;;
80348;SDS011;69662;52.676;13.612;2023-04-25T10:26:25;5.40;;;3.28;;
80348;SDS011;69662;52.676;13.612;2023-04-25T10:28:58;8.13;;;2.80;;
80348;SDS011;69662;52.676;13.612;2023-04-25T10:31:24;7.13;;;3.00;;
80348;SDS011;69662;52.676;13.612;2023-04-25T10:33:50;7.25;;;3.35;;
80348;SDS011;69662;52.676;13.612;2023-04-25T10:36:19;6.57;;;3.20;;
80348;SDS011;69662;52.676;13.612;2023-04-25T10:38:48;6.70;;;2.60;;
80348;SDS011;69662;52.676;13.612;2023-04-25T10:41:19;5.68;;;2.47;;
80348;SDS011;69662;52.676;13.612;2023-04-25T10:43:46;4.80;;;2.35;;
80348;SDS011;69662;52.676;13.612;2023-04-25T10:46:26;5.38;;;3.10;;
80348;SDS011;69662;52.676;13.612;2023-04-25T10:48:53;5.50;;;2.67;;
80348;SDS011;69662;52.676;13.612;2023-04-25T10:51:21;5.07;;;2.35;;
80348;SDS011;69662;52.676;13.612;2023-04-25T10:53:58;5.63;;;3.10;;
80348;SDS011;69662;52.676;13.612;2023-04-25T10:56:29;3.78;;;2.28;;
80348;SDS011;69662;52.676;13.612;2023-04-25T11:01:38;6.10;;;2.80;;
80348;SDS011;69662;52.676;13.612;2023-04-25T11:09:51;4.38;;;2.38;;
80348;SDS011;69662;52.676;13.612;2023-04-25T11:12:16;5.45;;;3.10;;
80348;SDS011;69662;52.676;13.612;2023-04-25T11:14:42;6.22;;;3.33;;
80348;SDS011;69662;52.676;13.612;2023-04-25T11:17:07;7.35;;;2.53;;
80348;SDS011;69662;52.676;13.612;2023-04-25T11:19:33;7.53;;;3.10;;
80348;SDS011;69662;52.676;13.612;2023-04-25T11:21:59;8.13;;;2.70;;
80348;SDS011;69662;52.676;13.612;2023-04-25T11:24:33;4.63;;;2.47;;
80348;SDS011;69662;52.676;13.612;2023-04-25T11:26:59;5.38;;;3.05;;
80348;SDS011;69662;52.676;13.612;2023-04-25T11:29:27;3.75;;;2.10;;
80348;SDS011;69662;52.676;13.612;2023-04-25T11:31:54;5.15;;;2.72;;
80348;SDS011;69662;52.676;13.612;2023-04-25T11:34:23;3.92;;;2.45;;
80348;SDS011;69662;52.676;13.612;2023-04-25T11:36:50;3.50;;;2.35;;
80348;SDS011;69662;52.676;13.612;2023-04-25T11:39:17;4.65;;;2.25;;
80348;SDS011;69662;52.676;13.612;2023-04-25T11:41:43;4.10;;;2.25;;
80348;SDS011;69662;52.676;13.612;2023-04-25T11:44:08;5.65;;;3.05;;
80348;SDS011;69662;52.676;13.612;2023-04-25T11:46:34;3.67;;;2.37;;
80348;SDS011;69662;52.676;13.612;2023-04-25T11:48:59;4.43;;;2.40;;
80348;SDS011;69662;52.676;13.612;2023-04-25T11:51:25;4.15;;;2.35;;
80348;SDS011;69662;52.676;13.612;2023-04-25T11:53:51;3.65;;;2.33;;
80348;SDS011;69662;52.676;13.612;2023-04-25T11:56:16;5.07;;;2.53;;
80348;SDS011;69662;52.676;13.612;2023-04-25T11:58:54;5.30;;;2.38;;
80348;SDS011;69662;52.676;13.612;2023-04-25T12:01:27;3.47;;;2.33;;
80348;SDS011;69662;52.676;13.612;2023-04-25T12:03:52;6.07;;;2.20;;
80348;SDS011;69662;52.676;13.612;2023-04-25T12:06:18;4.97;;;2.00;;
80348;SDS011;69662;52.676;13.612;2023-04-25T12:08:59;3.43;;;2.10;;
80348;SDS011;69662;52.676;13.612;2023-04-25T12:11:33;4.55;;;2.40;;
80348;SDS011;69662;52.676;13.612;2023-04-25T12:14:06;4.78;;;3.67;;
80348;SDS011;69662;52.676;13.612;2023-04-25T12:16:44;3.20;;;2.10;;
80348;SDS011;69662;52.676;13.612;2023-04-25T12:19:15;4.47;;;2.55;;
80348;SDS011;69662;52.676;13.612;2023-04-25T12:21:42;3.72;;;2.47;;
80348;SDS011;69662;52.676;13.612;2023-04-25T12:26:51;4.90;;;2.42;;
80348;SDS011;69662;52.676;13.612;2023-04-25T12:29:18;2.83;;;2.30;;
80348;SDS011;69662;52.676;13.612;2023-04-25T12:31:48;5.05;;;2.53;;
80348;SDS011;69662;52.676;13.612;2023-04-25T12:34:14;3.67;;;2.10;;
80348;SDS011;69662;52.676;13.612;2023-04-25T12:36:39;3.45;;;2.65;;
80348;SDS011;69662;52.676;13.612;2023-04-25T12:39:05;4.00;;;2.30;;
80348;SDS011;69662;52.676;13.612;2023-04-25T12:41:31;2.90;;;2.20;;
80348;SDS011;69662;52.676;13.612;2023-04-25T12:43:57;4.80;;;2.20;;
80348;SDS011;69662;52.676;13.612;2023-04-25T12:46:22;4.27;;;2.50;;
80348;SDS011;69662;52.676;13.612;2023-04-25T12:48:50;4.15;;;2.20;;
80348;SDS011;69662;52.676;13.612;2023-04-25T12:51:15;3.27;;;2.10;;
80348;SDS011;69662;52.676;13.612;2023-04-25T12:53:41;3.53;;;2.03;;
80348;SDS011;69662;52.676;13.612;2023-04-25T12:56:09;4.45;;;2.25;;
80348;SDS011;69662;52.676;13.612;2023-04-25T12:58:34;3.85;;;2.33;;
80348;SDS011;69662;52.676;13.612;2023-04-25T13:01:00;4.38;;;2.15;;
80348;SDS011;69662;52.676;13.612;2023-04-25T13:03:25;3.90;;;1.93;;
80348;SDS011;69662;52.676;13.612;2023-04-25T13:05:51;3.50;;;2.38;;
80348;SDS011;69662;52.676;13.612;2023-04-25T13:08:17;3.03;;;2.10;;
80348;SDS011;69662;52.676;13.612;2023-04-25T13:10:43;3.25;;;2.20;;
80348;SDS011;69662;52.676;13.612;2023-04-25T13:13:08;4.47;;;2.20;;
80348;SDS011;69662;52.676;13.612;2023-04-25T13:15:34;2.90;;;2.13;;
80348;SDS011;69662;52.676;13.612;2023-04-25T13:18:00;3.75;;;2.03;;
80348;SDS011;69662;52.676;13.612;2023-04-25T13:20:25;2.78;;;2.08;;
80348;SDS011;69662;52.676;13.612;2023-04-25T13:22:50;4.37;;;2.40;;
80348;SDS011;69662;52.676;13.612;2023-04-25T13:25:16;3.78;;;2.35;;
80348;SDS011;69662;52.676;13.612;2023-04-25T13:27:41;4.57;;;2.50;;
80348;SDS011;69662;52.676;13.612;2023-04-25T13:30:09;3.15;;;2.10;;
80348;SDS011;69662;52.676;13.612;2023-04-25T13:32:35;3.28;;;2.28;;
80348;SDS011;69662;52.676;13.612;2023-04-25T13:35:01;5.45;;;2.33;;
80348;SDS011;69662;52.676;13.612;2023-04-25T13:37:38;3.05;;;2.17;;
80348;SDS011;69662;52.676;13.612;2023-04-25T13:40:04;4.28;;;2.25;;
80348;SDS011;69662;52.676;13.612;2023-04-25T13:42:35;3.13;;;2.30;;
80348;SDS011;69662;52.676;13.612;2023-04-25T13:45:01;2.95;;;1.80;;
80348;SDS011;69662;52.676;13.612;2023-04-25T13:47:27;4.47;;;2.47;;
80348;SDS011;69662;52.676;13.612;2023-04-25T13:49:53;4.95;;;2.47;;
80348;SDS011;69662;52.676;13.612;2023-04-25T13:52:19;2.08;;;1.63;;
80348;SDS011;69662;52.676;13.612;2023-04-25T13:54:45;3.17;;;2.15;;
80348;SDS011;69662;52.676;13.612;2023-04-25T13:57:10;3.35;;;1.73;;
80348;SDS011;69662;52.676;13.612;2023-04-25T13:59:36;2.70;;;2.00;;
80348;SDS011;69662;52.676;13.612;2023-04-25T14:02:02;2.53;;;2.25;;
80348;SDS011;69662;52.676;13.612;2023-04-25T14:04:28;4.93;;;2.40;;
80348;SDS011;69662;52.676;13.612;2023-04-25T14:06:53;2.63;;;1.83;;
80348;SDS011;69662;52.676;13.612;2023-04-25T14:09:18;2.88;;;1.88;;
80348;SDS011;69662;52.676;13.612;2023-04-25T14:11:45;3.05;;;2.00;;
80348;SDS011;69662;52.676;13.612;2023-04-25T14:14:10;3.03;;;2.00;;
80348;SDS011;69662;52.676;13.612;2023-04-25T14:16:37;4.05;;;2.30;;
80348;SDS011;69662;52.676;13.612;2023-04-25T14:19:02;2.35;;;1.88;;
80348;SDS011;69662;52.676;13.612;2023-04-25T14:21:28;3.53;;;2.10;;
80348;SDS011;69662;52.676;13.612;2023-04-25T14:23:54;3.85;;;2.30;;
80348;SDS011;69662;52.676;13.612;2023-04-25T14:26:19;3.20;;;2.33;;
80348;SDS011;69662;52.676;13.612;2023-04-25T14:28:45;3.45;;;2.30;;
80348;SDS011;69662;52.676;13.612;2023-04-25T14:31:10;3.60;;;2.27;;
80348;SDS011;69662;52.676;13.612;2023-04-25T14:33:35;3.63;;;2.23;;
80348;SDS011;69662;52.676;13.612;2023-04-25T14:36:02;4.65;;;2.20;;
80348;SDS011;69662;52.676;13.612;2023-04-25T14:38:27;4.45;;;2.00;;